Terminal Aerodrome Forecast
Issued by NWS

Home | Current Version | Previous Version | Text Only | Print | Product List | Glossary On
Versions: 1 2 3 4 5 6 7 8 9 10 11 12 13 14
000
FTUS43 KAPX 281725
TAFTVC
TAF
KTVC 281725Z 2818/0118 23009G17KT P6SM SKC
     FM282300 20004KT P6SM SCT240
     FM010500 20004KT P6SM OVC070 WS014/21028KT
     FM011000 19005KT 2SM -SHSN OVC022 WS020/21025KT
     FM011400 23010G17KT P6SM BKN030=

USA.gov is the U.S. government's official web portal to all federal, state and local government web resources and services.